createdAt,value
2022-08-03T00:00:32.832Z,98163.66
2022-08-03T00:03:00.767Z,98157.88
2022-08-03T00:05:28.681Z,98150.22
2022-08-03T00:07:56.563Z,98136.53
2022-08-03T00:10:24.457Z,98141.03
2022-08-03T00:12:54.175Z,98130.78
2022-08-03T00:15:22.059Z,98129.28
2022-08-03T00:17:53.080Z,98117.50
2022-08-03T00:20:22.260Z,98104.78
2022-08-03T00:22:50.199Z,98086.81
2022-08-03T00:25:18.630Z,98086.13
2022-08-03T00:27:47.809Z,98073.53
2022-08-03T00:30:17.731Z,98065.88
2022-08-03T00:32:45.652Z,98056.56
2022-08-03T00:35:24.141Z,98047.25
2022-08-03T00:38:02.140Z,98037.91
2022-08-03T00:40:30.319Z,98029.59
2022-08-03T00:43:00.055Z,98018.47
2022-08-03T00:45:31.106Z,98014.38
2022-08-03T00:47:59.488Z,98007.69
2022-08-03T00:50:29.928Z,97997.44
2022-08-03T00:53:00.365Z,97994.13
2022-08-03T00:55:28.871Z,97978.00
2022-08-03T00:57:59.412Z,97971.28
2022-08-03T01:00:30.294Z,97950.22
2022-08-03T01:02:58.203Z,97940.25
2022-08-03T01:05:27.182Z,97930.94
2022-08-03T01:08:04.418Z,97913.00
2022-08-03T01:10:41.206Z,97913.16
2022-08-03T01:14:01.365Z,97914.28
2022-08-03T01:16:16.636Z,97899.59
2022-08-03T01:18:52.527Z,97898.13
2022-08-03T01:21:27.802Z,97894.84
2022-08-03T01:24:05.098Z,97889.78
2022-08-03T01:26:45.974Z,97891.69
2022-08-03T01:29:45.954Z,97872.16
2022-08-03T01:32:58.290Z,97854.34
2022-08-03T01:35:11.603Z,97851.09
2022-08-03T01:37:45.111Z,97841.81
2022-08-03T01:40:15.386Z,97834.94
2022-08-03T01:42:45.392Z,97825.66
2022-08-03T01:45:15.104Z,97819.94
2022-08-03T01:47:46.627Z,97806.25
2022-08-03T01:50:18.267Z,97797.91
2022-08-03T01:52:48.585Z,97792.06
2022-08-03T01:55:20.221Z,97783.56
2022-08-03T01:58:04.604Z,97782.75
2022-08-03T02:00:36.461Z,97778.66
2022-08-03T02:03:08.849Z,97766.06
2022-08-03T02:05:39.723Z,97745.75
2022-08-03T02:08:12.166Z,97733.00
2022-08-03T02:10:43.246Z,97720.31
2022-08-03T02:13:11.882Z,97715.25
2022-08-03T02:15:40.246Z,97712.78
2022-08-03T02:18:11.174Z,97709.38
2022-08-03T02:20:44.091Z,97706.06
2022-08-03T02:23:12.196Z,97698.44
2022-08-03T02:25:44.173Z,97698.59
2022-08-03T02:28:17.891Z,97689.28
2022-08-03T02:30:51.924Z,97682.59
2022-08-03T02:33:31.201Z,97663.84
2022-08-03T02:36:01.117Z,97657.19
2022-08-03T02:38:34.083Z,97649.69
2022-08-03T02:41:05.919Z,97640.38
2022-08-03T02:43:41.243Z,97631.94
2022-08-03T02:46:29.514Z,97621.84
2022-08-03T02:48:59.814Z,97621.03
2022-08-03T02:51:50.705Z,97610.09
2022-08-03T02:54:20.948Z,97609.41
2022-08-03T02:56:49.958Z,97605.31
2022-08-03T02:59:21.289Z,97596.69
2022-08-03T03:01:51.328Z,97587.44
2022-08-03T03:04:22.811Z,97582.38
2022-08-03T03:06:56.233Z,97579.94
2022-08-03T03:09:24.904Z,97578.44
2022-08-03T03:12:09.756Z,97571.59
2022-08-03T03:14:38.520Z,97567.38
2022-08-03T03:17:08.219Z,97563.16
2022-08-03T03:19:40.216Z,97564.94
2022-08-03T03:22:10.123Z,97562.50
2022-08-03T03:24:39.164Z,97564.25
2022-08-03T03:27:07.370Z,97559.34
2022-08-03T03:29:39.204Z,97549.09
2022-08-03T03:32:09.291Z,97534.66
2022-08-03T03:34:39.003Z,97527.94
2022-08-03T03:37:07.063Z,97517.88
2022-08-03T03:39:36.439Z,97507.75
2022-08-03T03:42:04.552Z,97512.94
2022-08-03T03:44:32.625Z,97511.16
2022-08-03T03:47:00.976Z,97507.91
2022-08-03T03:49:29.081Z,97509.69
2022-08-03T03:51:58.436Z,97500.41
2022-08-03T03:54:29.388Z,97491.13
2022-08-03T03:56:57.427Z,97469.84
2022-08-03T03:59:25.601Z,97462.22
2022-08-03T04:01:58.905Z,97465.78
2022-08-03T04:04:45.189Z,97459.06
2022-08-03T04:07:30.891Z,97458.25
2022-08-03T04:10:16.651Z,97454.03
2022-08-03T04:12:49.158Z,97452.53
2022-08-03T04:15:22.620Z,97447.47
2022-08-03T04:17:53.657Z,97447.47
2022-08-03T04:20:23.652Z,97452.66
2022-08-03T04:22:55.530Z,97457.03
2022-08-03T04:25:28.143Z,97447.47
2022-08-03T04:28:21.010Z,97459.63
2022-08-03T04:30:50.841Z,97455.25
2022-08-03T04:33:20.465Z,97456.91
2022-08-03T04:36:02.184Z,97463.91
2022-08-03T04:38:34.037Z,97474.94
2022-08-03T04:41:02.954Z,97493.63
2022-08-03T04:43:33.748Z,97497.72
2022-08-03T04:46:02.755Z,97515.59
2022-08-03T04:48:30.875Z,97519.66
2022-08-03T04:51:00.787Z,97540.00
2022-08-03T04:53:28.899Z,97560.47
2022-08-03T04:56:05.657Z,97577.41
2022-08-03T04:58:33.962Z,97591.88
2022-08-03T05:01:02.124Z,97609.63
2022-08-03T05:03:32.349Z,97633.41
2022-08-03T05:06:09.404Z,97653.72
2022-08-03T05:08:46.118Z,97675.72
2022-08-03T05:11:16.914Z,97696.19
2022-08-03T05:13:46.007Z,97717.38
2022-08-03T05:16:14.914Z,97736.78
2022-08-03T05:18:43.219Z,97750.31
2022-08-03T05:21:13.960Z,97778.31
2022-08-03T05:23:41.901Z,97788.56
2022-08-03T05:26:11.752Z,97808.94
2022-08-03T05:28:51.014Z,97840.53
2022-08-03T05:31:20.133Z,97859.13
2022-08-03T05:33:48.908Z,97876.09
2022-08-03T05:36:17.178Z,97895.66
2022-08-03T05:38:45.091Z,97913.41
2022-08-03T05:41:21.270Z,97932.16
2022-08-03T05:43:54.712Z,97956.75
2022-08-03T05:46:23.912Z,97976.19
2022-08-03T05:48:52.535Z,98005.19
2022-08-03T05:51:20.636Z,98027.25
2022-08-03T05:53:48.588Z,98057.88
2022-08-03T05:56:17.103Z,98088.41
2022-08-03T05:58:48.571Z,98113.84
2022-08-03T06:01:17.973Z,98151.25
2022-08-03T06:03:47.611Z,98189.59
2022-08-03T06:06:16.506Z,98223.41
2022-08-03T06:08:45.159Z,98260.00
2022-08-03T06:11:13.537Z,98301.78
2022-08-03T06:13:41.923Z,98335.78
2022-08-03T06:16:09.990Z,98371.44
2022-08-03T06:18:41.247Z,98408.06
2022-08-03T06:21:15.506Z,98439.47
2022-08-03T06:23:54.875Z,98481.97
2022-08-03T06:26:27.710Z,98532.19
2022-08-03T06:28:55.642Z,98585.81
2022-08-03T06:31:26.221Z,98632.66
2022-08-03T06:34:33.190Z,98678.53
2022-08-03T06:36:52.535Z,98733.31
2022-08-03T06:39:23.222Z,98769.03
2022-08-03T06:47:15.728Z,98936.16
2022-08-03T07:00:07.394Z,99210.19
2022-08-03T07:02:19.074Z,99240.78
2022-08-03T07:04:47.900Z,99301.66
2022-08-03T07:07:15.815Z,99339.13
2022-08-03T07:09:57.154Z,99393.16
2022-08-03T07:12:27.857Z,99450.38
2022-08-03T07:15:00.333Z,99518.78
2022-08-03T07:17:32.694Z,99579.53
2022-08-03T07:20:01.322Z,99637.78
2022-08-03T07:22:29.518Z,99696.88
2022-08-03T07:24:57.886Z,99748.22
2022-08-03T07:27:28.456Z,99797.00
2022-08-03T07:29:56.736Z,99855.31
2022-08-03T07:32:25.112Z,99896.47
2022-08-03T07:34:58.483Z,99938.41
2022-08-03T07:37:28.381Z,99989.13
2022-08-03T07:39:56.378Z,100031.16
2022-08-03T07:42:24.432Z,100071.31
2022-08-03T07:44:52.296Z,100126.28
2022-08-03T07:47:22.680Z,100178.69
2022-08-03T07:49:50.934Z,100238.91
2022-08-03T07:52:37.783Z,100297.41
2022-08-03T07:55:07.438Z,100354.91
2022-08-03T07:57:35.776Z,100440.81
2022-08-03T08:00:05.963Z,100515.78
2022-08-03T08:02:42.825Z,100562.13
2022-08-03T08:05:12.492Z,100629.31
2022-08-03T08:07:42.105Z,100679.16
2022-08-03T08:10:11.633Z,100755.06
2022-08-03T08:12:41.281Z,100830.78
2022-08-03T08:15:10.141Z,100937.63
2022-08-03T08:17:45.650Z,101029.13
2022-08-03T08:20:22.452Z,101129.25
2022-08-03T08:23:01.269Z,101234.47
2022-08-03T08:25:31.111Z,101336.53
2022-08-03T08:28:29.459Z,101419.44
2022-08-03T08:30:49.728Z,101519.78
2022-08-03T08:33:22.660Z,101641.94
2022-08-03T08:35:52.969Z,101733.63
2022-08-03T08:38:22.516Z,101816.81
2022-08-03T08:40:50.607Z,101874.66
2022-08-03T08:43:18.778Z,101948.53
2022-08-03T08:45:48.431Z,102008.25
2022-08-03T08:48:19.243Z,102095.78
2022-08-03T08:50:47.618Z,102205.13
2022-08-03T08:53:17.498Z,102293.72
2022-08-03T08:55:58.897Z,102357.16
2022-08-03T08:58:31.806Z,102422.28
2022-08-03T09:01:00.202Z,102485.72
2022-08-03T09:03:30.338Z,102541.41
2022-08-03T09:06:01.352Z,102609.13
2022-08-03T09:08:31.383Z,102698.84
2022-08-03T09:11:01.004Z,102811.09
2022-08-03T09:13:29.323Z,102900.81
2022-08-03T09:16:11.909Z,102969.63
2022-08-03T09:18:40.704Z,103018.28
2022-08-03T09:21:31.127Z,103054.84
2022-08-03T09:24:04.871Z,103108.13
2022-08-03T09:26:37.094Z,103153.31
2022-08-03T09:29:13.459Z,103232.84
2022-08-03T09:31:44.995Z,103304.22
2022-08-03T09:34:14.747Z,103382.81
2022-08-03T09:36:44.523Z,103417.75
2022-08-03T09:39:14.454Z,103470.09
2022-08-03T09:41:46.432Z,103514.66
2022-08-03T09:44:24.251Z,103517.09
2022-08-03T09:46:55.534Z,103563.38
2022-08-03T09:49:24.239Z,103606.97
2022-08-03T09:52:31.641Z,103618.31
2022-08-03T09:54:40.839Z,103648.91
2022-08-03T09:57:10.923Z,103690.78
2022-08-03T09:59:41.239Z,103699.25
2022-08-03T10:02:22.674Z,103711.44
2022-08-03T10:04:52.788Z,103746.44
2022-08-03T10:07:22.402Z,103781.34
2022-08-03T10:09:58.394Z,103817.19
2022-08-03T10:12:49.216Z,103788.97
2022-08-03T10:16:23.902Z,103805.53
2022-08-03T10:18:05.829Z,103847.47
2022-08-03T10:20:38.888Z,103901.69
2022-08-03T10:23:09.076Z,103949.75
2022-08-03T10:25:39.387Z,103994.41
2022-08-03T10:28:14.202Z,104032.91
2022-08-03T10:30:45.316Z,104058.25
2022-08-03T10:33:50.183Z,104086.16
2022-08-03T10:36:08.706Z,104123.75
2022-08-03T10:38:41.446Z,104090.34
2022-08-03T10:41:09.900Z,104091.03
2022-08-03T10:43:46.388Z,104091.88
2022-08-03T10:46:16.862Z,104075.91
2022-08-03T10:48:45.211Z,104082.75
2022-08-03T10:51:14.219Z,104095.81
2022-08-03T10:53:51.522Z,104141.38
2022-08-03T10:57:03.454Z,104194.75
2022-08-03T11:00:05.012Z,104183.16
2022-08-03T11:03:06.191Z,104196.31
2022-08-03T11:05:35.979Z,104213.75
2022-08-03T11:08:28.895Z,104221.41
2022-08-03T11:10:59.973Z,104246.84
2022-08-03T11:13:31.845Z,104251.91
2022-08-03T11:16:07.750Z,104279.94
2022-08-03T11:18:37.502Z,104308.75
2022-08-03T11:21:05.947Z,104327.97
2022-08-03T11:24:04.050Z,104333.16
2022-08-03T11:26:34.509Z,104372.63
2022-08-03T11:29:31.702Z,104398.88
2022-08-03T11:32:01.045Z,104384.66
2022-08-03T11:34:28.972Z,104395.91
2022-08-03T11:37:28.746Z,104350.13
2022-08-03T11:39:59.289Z,104330.59
2022-08-03T11:42:48.299Z,104370.97
2022-08-03T11:45:16.783Z,104422.75
2022-08-03T11:47:50.451Z,104441.97
2022-08-03T11:50:21.226Z,104467.28
2022-08-03T11:52:50.420Z,104459.28
2022-08-03T11:55:20.501Z,104411.75
2022-08-03T11:59:13.165Z,104386.94
2022-08-03T12:00:37.497Z,104426.44
2022-08-03T12:03:09.105Z,104461.44
2022-08-03T12:05:41.213Z,104448.09
2022-08-03T12:08:09.577Z,104485.88
2022-08-03T12:10:38.440Z,104540.38
2022-08-03T12:13:56.670Z,104595.59
2022-08-03T12:15:59.092Z,104680.84
2022-08-03T12:18:28.455Z,104761.81
2022-08-03T12:21:06.660Z,104786.38
2022-08-03T12:23:37.694Z,104705.22
2022-08-03T12:26:08.348Z,104638.19
2022-08-03T12:28:38.525Z,104588.81
2022-08-03T12:31:09.238Z,104478.69
2022-08-03T12:34:04.022Z,104440.81
2022-08-03T12:36:33.616Z,104463.53
2022-08-03T12:39:03.715Z,104557.63
2022-08-03T12:41:34.230Z,104648.94
2022-08-03T12:44:04.150Z,104719.28
2022-08-03T12:46:34.130Z,104740.41
2022-08-03T12:49:08.426Z,104769.31
2022-08-03T12:51:39.132Z,104806.31
2022-08-03T12:54:07.413Z,104869.44
2022-08-03T12:56:36.063Z,104914.34
2022-08-03T12:59:24.722Z,104953.09
2022-08-03T13:02:00.963Z,105023.50
2022-08-03T13:04:33.656Z,105087.75
2022-08-03T13:07:03.400Z,105042.66
2022-08-03T13:09:41.562Z,105034.63
2022-08-03T13:12:11.680Z,105027.47
2022-08-03T13:14:39.681Z,105036.16
2022-08-03T13:17:08.155Z,105057.25
2022-08-03T13:19:38.349Z,105113.56
2022-08-03T13:22:12.769Z,105148.91
2022-08-03T13:24:41.194Z,105065.72
2022-08-03T13:28:01.092Z,104991.59
2022-08-03T13:29:58.062Z,104930.56
2022-08-03T13:32:26.086Z,104882.94
2022-08-03T13:34:55.353Z,104859.88
2022-08-03T13:37:23.509Z,104832.41
2022-08-03T13:39:59.662Z,104796.16
2022-08-03T13:42:30.075Z,104743.94
2022-08-03T13:44:58.134Z,104736.03
2022-08-03T13:47:26.077Z,104739.34
2022-08-03T13:50:00.269Z,104756.00
2022-08-03T13:52:30.806Z,104720.72
2022-08-03T13:54:58.821Z,104701.25
2022-08-03T13:58:11.928Z,104700.19
2022-08-03T14:00:26.553Z,104704.47
2022-08-03T14:03:02.698Z,104803.91
2022-08-03T14:05:33.755Z,104859.38
2022-08-03T14:08:03.060Z,104795.88
2022-08-03T14:10:33.276Z,104816.81
2022-08-03T14:13:01.320Z,104924.28
2022-08-03T14:15:29.514Z,105030.00
2022-08-03T14:17:58.653Z,105123.38
2022-08-03T14:20:37.460Z,105269.09
2022-08-03T14:23:08.717Z,105410.31
2022-08-03T14:25:43.416Z,105536.63
2022-08-03T14:28:18.550Z,105532.03
2022-08-03T14:30:46.571Z,105577.97
2022-08-03T14:33:14.451Z,105654.81
2022-08-03T14:35:42.416Z,105576.72
2022-08-03T14:38:11.689Z,105533.44
2022-08-03T14:40:39.618Z,105467.00
2022-08-03T14:43:07.511Z,105329.94
2022-08-03T14:45:35.399Z,105259.03
2022-08-03T14:50:34.817Z,105234.28
2022-08-03T14:50:52.827Z,105275.63
2022-08-03T14:53:22.397Z,105402.78
2022-08-03T14:55:51.885Z,105493.75
2022-08-03T14:58:20.942Z,105543.16
2022-08-03T15:00:51.244Z,105488.97
2022-08-03T15:03:23.091Z,105504.09
2022-08-03T15:05:51.743Z,105543.66
2022-08-03T15:08:22.096Z,105611.69
2022-08-03T15:10:50.491Z,105606.22
2022-08-03T15:13:19.418Z,105645.00
2022-08-03T15:15:49.560Z,105659.94
2022-08-03T15:18:17.501Z,105733.28
2022-08-03T15:20:46.955Z,105917.47
2022-08-03T15:23:16.207Z,106061.75
2022-08-03T15:26:28.678Z,105997.94
2022-08-03T15:28:34.496Z,105923.28
2022-08-03T15:31:05.737Z,105930.25
2022-08-03T15:33:33.812Z,105835.41
2022-08-03T15:36:03.706Z,105695.28
2022-08-03T15:38:31.545Z,105380.38
2022-08-03T15:41:00.799Z,105238.00
2022-08-03T15:43:28.711Z,105174.34
2022-08-03T15:48:44.682Z,105120.19
2022-08-03T15:51:12.620Z,105074.22
2022-08-03T15:53:40.591Z,105026.53
2022-08-03T15:56:13.254Z,104959.38
2022-08-03T15:59:09.466Z,104972.41
2022-08-03T16:01:32.836Z,104979.41
2022-08-03T16:04:00.829Z,104848.78
2022-08-03T16:06:29.733Z,104797.66
2022-08-03T16:09:07.075Z,104764.06
2022-08-03T16:11:53.789Z,104795.66
2022-08-03T16:14:32.576Z,104851.94
2022-08-03T16:17:05.914Z,104866.78
2022-08-03T16:19:33.877Z,104849.06
2022-08-03T16:22:03.468Z,104753.81
2022-08-03T16:24:31.846Z,104679.84
2022-08-03T16:27:01.120Z,104622.56
2022-08-03T16:29:29.695Z,104594.34
2022-08-03T16:31:57.636Z,104534.41
2022-08-03T16:34:25.526Z,104441.88
2022-08-03T16:36:54.637Z,104337.19
2022-08-03T16:39:22.636Z,104207.88
2022-08-03T16:41:54.142Z,104109.50
2022-08-03T16:44:32.088Z,104003.16
2022-08-03T16:46:59.992Z,103981.22
2022-08-03T16:49:55.467Z,103940.78
2022-08-03T16:52:16.830Z,103862.66
2022-08-03T16:54:52.784Z,103825.78
2022-08-03T16:57:55.963Z,103824.94
2022-08-03T17:00:34.236Z,103789.78
2022-08-03T17:03:12.791Z,103727.47
2022-08-03T17:05:48.224Z,103694.91
2022-08-03T17:08:18.933Z,103677.38
2022-08-03T17:10:55.395Z,103664.13
2022-08-03T17:13:27.737Z,103637.88
2022-08-03T17:16:12.024Z,103622.16
2022-08-03T17:18:52.404Z,103574.78
2022-08-03T17:21:26.515Z,103533.72
2022-08-03T17:24:04.645Z,103496.00
2022-08-03T17:26:44.614Z,103432.13
2022-08-03T17:29:14.747Z,103371.63
2022-08-03T17:31:49.417Z,103338.50
2022-08-03T17:34:18.935Z,103297.22
2022-08-03T17:37:03.902Z,103282.41
2022-08-03T17:39:57.152Z,103259.63
2022-08-03T17:42:31.920Z,103213.97
2022-08-03T17:45:03.536Z,103194.66
2022-08-03T17:47:42.496Z,103192.97
2022-08-03T17:50:24.174Z,103181.69
2022-08-03T17:53:07.236Z,103130.88
2022-08-03T17:55:57.715Z,103063.56
2022-08-03T17:58:41.504Z,103020.91
2022-08-03T18:01:57.531Z,102966.81
2022-08-03T18:04:30.138Z,102887.34
2022-08-03T18:07:11.671Z,102834.91
2022-08-03T18:10:05.755Z,102766.03
2022-08-03T18:12:45.168Z,102671.09
2022-08-03T18:15:27.936Z,102563.91
2022-08-03T18:18:02.459Z,102470.91
2022-08-03T18:20:41.208Z,102385.72
2022-08-03T18:26:00.628Z,102205.78
2022-08-03T18:28:32.002Z,102143.25
2022-08-03T18:31:05.670Z,102074.50
2022-08-03T18:34:17.195Z,102014.66
2022-08-03T18:36:30.534Z,101943.50
2022-08-03T18:39:01.821Z,101887.94
2022-08-03T18:41:32.677Z,101831.69
2022-08-03T18:44:06.634Z,101771.94
2022-08-03T18:46:46.989Z,101718.22
2022-08-03T18:49:32.544Z,101657.53
2022-08-03T18:52:12.141Z,101609.91
2022-08-03T18:55:03.841Z,101561.53
2022-08-03T18:57:44.551Z,101500.06
2022-08-03T19:00:17.331Z,101455.09
2022-08-03T19:02:58.704Z,101398.84
2022-08-03T19:05:56.456Z,101354.84
2022-08-03T19:08:28.118Z,101307.38
2022-08-03T19:11:06.109Z,101263.31
2022-08-03T19:13:45.038Z,101221.88
2022-08-03T19:16:22.754Z,101176.97
2022-08-03T19:18:55.174Z,101135.44
2022-08-03T19:21:23.739Z,101101.00
2022-08-03T19:23:54.111Z,101053.50
2022-08-03T19:26:30.360Z,101009.59
2022-08-03T19:28:59.679Z,100964.75
2022-08-03T19:31:31.029Z,100917.38
2022-08-03T19:33:59.875Z,100885.34
2022-08-03T19:36:29.254Z,100858.63
2022-08-03T19:38:59.145Z,100842.47
2022-08-03T19:41:42.263Z,100813.09
2022-08-03T19:44:12.495Z,100788.94
2022-08-03T19:46:53.421Z,100769.31
2022-08-03T19:49:59.968Z,100739.13
2022-08-03T19:52:15.921Z,100716.84
2022-08-03T19:54:53.872Z,100689.28
2022-08-03T19:57:24.997Z,100645.34
2022-08-03T19:59:54.056Z,100608.22
2022-08-03T20:02:26.416Z,100573.09
2022-08-03T20:04:56.907Z,100548.34
2022-08-03T20:07:25.584Z,100507.75
2022-08-03T20:09:56.231Z,100478.59
2022-08-03T20:12:27.567Z,100450.25
2022-08-03T20:14:57.701Z,100419.25
2022-08-03T20:17:55.964Z,100387.63
2022-08-03T20:20:14.270Z,100343.78
2022-08-03T20:22:46.089Z,100316.28
2022-08-03T20:25:20.789Z,100282.72
2022-08-03T20:28:07.253Z,100255.38
2022-08-03T20:30:46.398Z,100217.66
2022-08-03T20:33:18.589Z,100200.56
2022-08-03T20:35:49.227Z,100177.41
2022-08-03T20:38:19.060Z,100147.31
2022-08-03T20:40:49.380Z,100123.31
2022-08-03T20:43:20.103Z,100103.78
2022-08-03T20:45:59.040Z,100081.47
2022-08-03T20:48:37.067Z,100060.97
2022-08-03T20:51:19.591Z,100027.44
2022-08-03T20:53:56.945Z,100002.63
2022-08-03T20:56:33.521Z,99983.94
2022-08-03T20:59:03.972Z,99958.16
2022-08-03T21:01:36.506Z,99939.22
2022-08-03T21:04:06.997Z,99929.25
2022-08-03T21:06:45.542Z,99902.38
2022-08-03T21:09:19.618Z,99892.38
2022-08-03T21:11:53.190Z,99864.84
2022-08-03T21:13:05.867Z,102290.91
2022-08-03T21:14:25.334Z,99846.97
2022-08-03T21:16:53.993Z,99828.97
2022-08-03T21:19:23.402Z,99816.25
2022-08-03T21:21:51.470Z,99795.63
2022-08-03T21:24:24.578Z,99780.41
2022-08-03T21:26:55.524Z,99761.63
2022-08-03T21:29:24.500Z,99726.34
2022-08-03T21:31:52.612Z,99698.97
2022-08-03T21:34:21.672Z,99673.50
2022-08-03T21:36:50.038Z,99644.31
2022-08-03T21:39:17.949Z,99622.91
2022-08-03T21:41:45.866Z,99609.34
2022-08-03T21:44:18.322Z,99581.97
2022-08-03T21:46:58.983Z,99564.28
2022-08-03T21:50:04.978Z,99540.25
2022-08-03T21:52:19.482Z,99516.34
2022-08-03T21:54:51.232Z,99500.06
2022-08-03T21:57:21.991Z,99487.34
2022-08-03T21:59:56.599Z,99463.44
2022-08-03T22:06:35.992Z,99391.66
2022-08-03T22:09:06.762Z,99375.50
2022-08-03T22:11:35.748Z,99360.22
2022-08-03T22:14:03.804Z,99343.22
2022-08-03T22:16:31.676Z,99331.34
2022-08-03T22:19:00.733Z,99321.13
2022-08-03T22:21:36.467Z,99306.75
2022-08-03T22:24:07.430Z,99289.69
2022-08-03T22:26:36.950Z,99273.53
2022-08-03T22:29:08.455Z,99259.84
2022-08-03T22:31:58.753Z,99241.94
2022-08-03T22:34:27.361Z,99225.81
2022-08-03T22:37:00.872Z,99209.66
2022-08-03T22:39:30.967Z,99194.22
2022-08-03T22:41:59.767Z,99178.09
2022-08-03T22:44:28.428Z,99155.91
2022-08-03T22:46:57.104Z,99142.56
2022-08-03T22:49:25.279Z,99122.00
2022-08-03T22:51:53.106Z,99104.91
2022-08-03T22:54:21.058Z,99091.41
2022-08-03T22:56:50.702Z,99070.06
2022-08-03T22:59:40.955Z,99052.13
2022-08-03T23:02:15.093Z,99030.91
2022-08-03T23:04:51.354Z,99018.38
2022-08-03T23:07:23.012Z,98998.00
2022-08-03T23:09:51.355Z,98980.91
2022-08-03T23:12:21.659Z,98956.13
2022-08-03T23:14:55.358Z,98937.41
2022-08-03T23:17:24.506Z,98922.94
2022-08-03T23:19:53.793Z,98906.84
2022-08-03T23:22:30.222Z,98901.88
2022-08-03T23:25:01.454Z,98891.88
2022-08-03T23:27:32.451Z,98882.50
2022-08-03T23:30:01.923Z,98857.72
2022-08-03T23:32:31.562Z,98843.44
2022-08-03T23:35:19.125Z,98821.28
2022-08-03T23:38:04.587Z,98811.09
2022-08-03T23:40:38.016Z,98792.38
2022-08-03T23:43:08.163Z,98775.47
2022-08-03T23:45:49.024Z,98757.56
2022-08-03T23:48:17.694Z,98748.22
2022-08-03T23:50:50.064Z,98738.16
2022-08-03T23:53:19.073Z,98717.84
2022-08-03T23:56:01.871Z,98704.22
2022-08-03T23:58:47.972Z,98687.03
